Terminal Aerodrome Forecast
Issued by NWS Sterling, VA

Home | Current Version | Previous Version | Text Only | Print | Product List | Glossary On
Versions: 1 2 3 4 5 6 7 8 9 10 11 12 13 14 15 16 17 18 19 20 21 22 23
000
FTUS41 KLWX 090857 AAB
TAFIAD
TAF AMD
KIAD 090857Z 0909/1012 13005KT 4SM -SN OVC010
     FM091100 VRB04KT 1SM -SN OVC007
     FM091700 33006KT 3SM -SHSN OVC025
     FM092200 29007KT P6SM OVC050=

USA.gov is the U.S. government's official web portal to all federal, state and local government web resources and services.